Flight EZE24R

  • Submitted By: Dave Hardy
  • Departure Airport: Cardiff (EGFF)
  • Arrival Airport: Newcastle International (EGNT)
  • Aircraft: JS41 (G-MAJA)
  • Flight Time: 01.11
  • Date Submitted: 02/14/2009
  • Status: Accepted
Flight Details
Gross Revenue:
(15 load / £ 0.00 per unit
£ 0.00
Fuel Cost:
(1516 fuel used @ 0 / unit)
£ 0.00

Flight Details

  • VATAWARE Link: -

Additional Log Information:

View Log

[2009/02/14 12:26:00]
Flight IATA:EZE24R
Pilot Number:EZE0001
Company ICAO:EZE
Aircraft Type:JS41
PAX:15
Aircraft Registration:JS41
Departing Airport: EGFF
Destination Airport: EGNT
Online: VATSIM
Route:BCN N864 NITON Y98 POL P18 TILNI
Flight Level:19000
12:26 Zero fuel Weight: 17982 Lbs, Fuel Weight: 4470 Lbs
12:26 VATSIM:EGFF 141150Z 12005KT 090V150 9999 BKN022 05/03 Q1029
12:26 VATSIM:EGNT 141150Z 25002KT 9999 BKN020 04/01 Q1027
12:39 Parking Brakes off
12:39 Com1 Freq=122.80
12:44 VR= 141 Knots
12:44 V2= 146 Knots
12:44 Take-off
12:44 Take off Weight: 22390 Lbs
12:44 Wind: 126 @ 004 Knots Heading: 116
12:44 POS N51 23 37 W003 20 04
12:44 N11 36 N12 36
12:44 Gear Up: 149 Knots
12:44 Flaps: at 149 Knots
12:54 Flaps: at 207 Knots
12:55 TOC
12:55 Fuel Weight: 3955 Lb
12:59 Wind:312@019 Knots Heading: 357 Ground Speed: 284 Knots Altitude 18986 ft
13:14 Wind:310@019 Knots Heading: 025 Ground Speed: 252 Knots Altitude 18976 ft
13:15 TOD
13:15 Fuel Weight: 3430 Lb
13:16 TOC
13:16 Fuel Weight: 3420 Lb
13:20 Com1 Freq=125.80
13:20 Com1 Freq=130.80
13:20 Com1 Freq=132.80
13:20 Com1 Freq=134.80
13:20 Com1 Freq=135.80
13:20 Com1 Freq=135.77
13:20 Com1 Freq=135.67
13:21 Com1 Freq=135.55
13:21 Com1 Freq=135.52
13:26 TOD
13:26 Fuel Weight: 3206 Lb
13:29 Wind:309@017 Knots Heading: 007 Ground Speed: 259 Knots Altitude 15816 ft
13:44 Wind:237@009 Knots Heading: 251 Ground Speed: 177 Knots Altitude 3349 ft
13:44 Flaps: at 186 Knots
13:45 Gear Down: 172 Knots
13:45 Flaps: at 145 Knots
13:47 TouchDown:Rate -788 ft/min Speed: 129 Knots
13:48 Flaps: at 80 Knots
13:48 VATSIM:EGNT 141250Z 22003KT 9999 BKN020 05/01 Q1026
13:48 Land
13:48 Wind:256@002 Knots
13:48 Heading: 244
13:48 Flight Duration: 01:04
13:48 Landing Weight: 20943 Lbs
13:48 POS N55 02 17 W001 41 21
13:50 Parking brakes on
13:50 Block to Block Duration: 01:11
13:50 Final Fuel: 2954 Lbls
13:50 Spent Fuel: 1516 Lbls
13:50 Flight Length: 254 NM
13:50 TOD Land Length: 74 NM

Route Map